sensor_id;sensor_type;location;lat;lon;timestamp;temperature;humidity
69677;DHT22;56914;51.058;9.326;2023-03-16T00:00:29;4.20;60.20
69677;DHT22;56914;51.058;9.326;2023-03-16T00:01:32;4.10;60.20
69677;DHT22;56914;51.058;9.326;2023-03-16T00:02:35;4.20;60.20
69677;DHT22;56914;51.058;9.326;2023-03-16T00:03:38;4.10;60.30
69677;DHT22;56914;51.058;9.326;2023-03-16T00:04:41;4.10;60.50
69677;DHT22;56914;51.058;9.326;2023-03-16T00:05:43;4.10;60.60
69677;DHT22;56914;51.058;9.326;2023-03-16T00:06:47;4.10;60.70
69677;DHT22;56914;51.058;9.326;2023-03-16T00:07:50;4.10;60.70
69677;DHT22;56914;51.058;9.326;2023-03-16T00:08:54;4.10;60.80
69677;DHT22;56914;51.058;9.326;2023-03-16T00:09:59;4.10;60.70
69677;DHT22;56914;51.058;9.326;2023-03-16T00:11:03;4.10;60.50
69677;DHT22;56914;51.058;9.326;2023-03-16T00:12:09;4.10;60.40
69677;DHT22;56914;51.058;9.326;2023-03-16T00:13:18;4.10;60.50
69677;DHT22;56914;51.058;9.326;2023-03-16T00:14:21;4.10;60.40
69677;DHT22;56914;51.058;9.326;2023-03-16T00:15:24;4.10;60.30
69677;DHT22;56914;51.058;9.326;2023-03-16T00:16:28;4.10;60.20
69677;DHT22;56914;51.058;9.326;2023-03-16T00:17:30;4.00;60.00
69677;DHT22;56914;51.058;9.326;2023-03-16T00:18:35;4.00;60.40
69677;DHT22;56914;51.058;9.326;2023-03-16T00:19:40;4.00;60.80
69677;DHT22;56914;51.058;9.326;2023-03-16T00:20:51;4.00;61.10
69677;DHT22;56914;51.058;9.326;2023-03-16T00:21:54;4.00;61.20
69677;DHT22;56914;51.058;9.326;2023-03-16T00:22:57;4.00;61.00
69677;DHT22;56914;51.058;9.326;2023-03-16T00:24:01;3.90;61.20
69677;DHT22;56914;51.058;9.326;2023-03-16T00:25:05;3.90;61.30
69677;DHT22;56914;51.058;9.326;2023-03-16T00:26:09;3.90;61.10
69677;DHT22;56914;51.058;9.326;2023-03-16T00:27:14;3.90;61.50
69677;DHT22;56914;51.058;9.326;2023-03-16T00:28:18;3.90;60.80
69677;DHT22;56914;51.058;9.326;2023-03-16T00:29:20;3.90;60.70
69677;DHT22;56914;51.058;9.326;2023-03-16T00:30:24;3.90;60.50
69677;DHT22;56914;51.058;9.326;2023-03-16T00:31:28;3.90;60.40
69677;DHT22;56914;51.058;9.326;2023-03-16T00:32:36;3.90;60.30
69677;DHT22;56914;51.058;9.326;2023-03-16T00:33:38;3.90;60.30
69677;DHT22;56914;51.058;9.326;2023-03-16T00:34:44;3.90;60.30
69677;DHT22;56914;51.058;9.326;2023-03-16T00:35:47;3.90;60.50
69677;DHT22;56914;51.058;9.326;2023-03-16T00:36:51;3.80;60.60
69677;DHT22;56914;51.058;9.326;2023-03-16T00:37:53;3.80;60.80
69677;DHT22;56914;51.058;9.326;2023-03-16T00:38:59;3.80;61.40
69677;DHT22;56914;51.058;9.326;2023-03-16T00:40:03;3.80;60.70
69677;DHT22;56914;51.058;9.326;2023-03-16T00:41:08;3.80;60.60
69677;DHT22;56914;51.058;9.326;2023-03-16T00:42:12;3.80;60.40
69677;DHT22;56914;51.058;9.326;2023-03-16T00:43:16;3.80;60.30
69677;DHT22;56914;51.058;9.326;2023-03-16T00:44:19;3.80;60.30
69677;DHT22;56914;51.058;9.326;2023-03-16T00:45:22;3.80;60.40
69677;DHT22;56914;51.058;9.326;2023-03-16T00:46:24;3.80;60.40
69677;DHT22;56914;51.058;9.326;2023-03-16T00:47:30;3.80;60.40
69677;DHT22;56914;51.058;9.326;2023-03-16T00:48:34;3.80;60.40
69677;DHT22;56914;51.058;9.326;2023-03-16T00:49:37;3.80;60.40
69677;DHT22;56914;51.058;9.326;2023-03-16T00:50:40;3.80;60.40
69677;DHT22;56914;51.058;9.326;2023-03-16T00:51:44;3.80;60.70
69677;DHT22;56914;51.058;9.326;2023-03-16T00:52:47;3.80;60.90
69677;DHT22;56914;51.058;9.326;2023-03-16T00:53:50;3.80;60.80
69677;DHT22;56914;51.058;9.326;2023-03-16T00:54:54;3.80;60.70
69677;DHT22;56914;51.058;9.326;2023-03-16T00:55:58;3.80;60.60
69677;DHT22;56914;51.058;9.326;2023-03-16T00:57:01;3.80;60.70
69677;DHT22;56914;51.058;9.326;2023-03-16T00:58:04;3.80;60.60
69677;DHT22;56914;51.058;9.326;2023-03-16T00:59:07;3.80;60.40
69677;DHT22;56914;51.058;9.326;2023-03-16T01:00:11;3.80;60.30
69677;DHT22;56914;51.058;9.326;2023-03-16T01:01:19;3.80;60.10
69677;DHT22;56914;51.058;9.326;2023-03-16T01:02:22;3.70;59.90
69677;DHT22;56914;51.058;9.326;2023-03-16T01:03:25;3.70;59.90
69677;DHT22;56914;51.058;9.326;2023-03-16T01:04:27;3.70;59.90
69677;DHT22;56914;51.058;9.326;2023-03-16T01:05:31;3.60;59.90
69677;DHT22;56914;51.058;9.326;2023-03-16T01:06:34;3.60;59.90
69677;DHT22;56914;51.058;9.326;2023-03-16T01:07:41;3.60;59.80
69677;DHT22;56914;51.058;9.326;2023-03-16T01:08:43;3.60;59.90
69677;DHT22;56914;51.058;9.326;2023-03-16T01:09:47;3.60;60.30
69677;DHT22;56914;51.058;9.326;2023-03-16T01:10:51;3.60;60.90
69677;DHT22;56914;51.058;9.326;2023-03-16T01:11:54;3.60;61.10
69677;DHT22;56914;51.058;9.326;2023-03-16T01:12:56;3.60;61.30
69677;DHT22;56914;51.058;9.326;2023-03-16T01:13:59;3.60;61.10
69677;DHT22;56914;51.058;9.326;2023-03-16T01:15:02;3.60;61.00
69677;DHT22;56914;51.058;9.326;2023-03-16T01:16:06;3.60;61.00
69677;DHT22;56914;51.058;9.326;2023-03-16T01:17:09;3.50;60.90
69677;DHT22;56914;51.058;9.326;2023-03-16T01:18:14;3.50;60.90
69677;DHT22;56914;51.058;9.326;2023-03-16T01:19:16;3.60;61.50
69677;DHT22;56914;51.058;9.326;2023-03-16T01:20:20;3.50;60.90
69677;DHT22;56914;51.058;9.326;2023-03-16T01:21:23;3.50;60.80
69677;DHT22;56914;51.058;9.326;2023-03-16T01:22:26;3.50;60.70
69677;DHT22;56914;51.058;9.326;2023-03-16T01:23:29;3.50;60.60
69677;DHT22;56914;51.058;9.326;2023-03-16T01:24:33;3.50;60.50
69677;DHT22;56914;51.058;9.326;2023-03-16T01:25:35;3.50;60.50
69677;DHT22;56914;51.058;9.326;2023-03-16T01:26:40;3.50;60.50
69677;DHT22;56914;51.058;9.326;2023-03-16T01:27:42;3.50;60.50
69677;DHT22;56914;51.058;9.326;2023-03-16T01:28:46;3.50;60.50
69677;DHT22;56914;51.058;9.326;2023-03-16T01:29:48;3.50;60.40
69677;DHT22;56914;51.058;9.326;2023-03-16T01:30:54;3.50;60.30
69677;DHT22;56914;51.058;9.326;2023-03-16T01:31:59;3.50;60.60
69677;DHT22;56914;51.058;9.326;2023-03-16T01:33:02;3.50;61.00
69677;DHT22;56914;51.058;9.326;2023-03-16T01:34:04;3.50;61.50
69677;DHT22;56914;51.058;9.326;2023-03-16T01:35:08;3.50;61.70
69677;DHT22;56914;51.058;9.326;2023-03-16T01:36:11;3.40;61.80
69677;DHT22;56914;51.058;9.326;2023-03-16T01:37:15;3.50;62.00
69677;DHT22;56914;51.058;9.326;2023-03-16T01:38:17;3.50;62.00
69677;DHT22;56914;51.058;9.326;2023-03-16T01:39:20;3.50;61.90
69677;DHT22;56914;51.058;9.326;2023-03-16T01:40:24;3.50;61.60
69677;DHT22;56914;51.058;9.326;2023-03-16T01:41:26;3.50;61.40
69677;DHT22;56914;51.058;9.326;2023-03-16T01:42:30;3.50;61.30
69677;DHT22;56914;51.058;9.326;2023-03-16T01:43:35;3.50;61.30
69677;DHT22;56914;51.058;9.326;2023-03-16T01:44:51;3.40;61.10
69677;DHT22;56914;51.058;9.326;2023-03-16T01:46:17;3.50;61.20
69677;DHT22;56914;51.058;9.326;2023-03-16T01:47:20;3.40;61.30
69677;DHT22;56914;51.058;9.326;2023-03-16T01:48:25;3.40;61.40
69677;DHT22;56914;51.058;9.326;2023-03-16T01:49:32;3.40;61.50
69677;DHT22;56914;51.058;9.326;2023-03-16T01:50:36;3.40;61.50
69677;DHT22;56914;51.058;9.326;2023-03-16T01:51:41;3.40;61.60
69677;DHT22;56914;51.058;9.326;2023-03-16T01:52:45;3.40;61.60
69677;DHT22;56914;51.058;9.326;2023-03-16T01:53:52;3.40;61.50
69677;DHT22;56914;51.058;9.326;2023-03-16T01:54:59;3.40;61.40
69677;DHT22;56914;51.058;9.326;2023-03-16T01:56:07;3.40;61.30
69677;DHT22;56914;51.058;9.326;2023-03-16T01:57:15;3.40;61.20
69677;DHT22;56914;51.058;9.326;2023-03-16T01:58:19;3.30;61.60
69677;DHT22;56914;51.058;9.326;2023-03-16T01:59:28;3.40;61.70
69677;DHT22;56914;51.058;9.326;2023-03-16T02:00:31;3.30;61.60
69677;DHT22;56914;51.058;9.326;2023-03-16T02:01:35;3.30;61.40
69677;DHT22;56914;51.058;9.326;2023-03-16T02:02:39;3.30;61.20
69677;DHT22;56914;51.058;9.326;2023-03-16T02:03:45;3.30;61.10
69677;DHT22;56914;51.058;9.326;2023-03-16T02:04:52;3.30;61.10
69677;DHT22;56914;51.058;9.326;2023-03-16T02:06:01;3.30;61.50
69677;DHT22;56914;51.058;9.326;2023-03-16T02:07:08;3.30;61.20
69677;DHT22;56914;51.058;9.326;2023-03-16T02:08:12;3.30;61.20
69677;DHT22;56914;51.058;9.326;2023-03-16T02:09:15;3.30;61.20
69677;DHT22;56914;51.058;9.326;2023-03-16T02:10:20;3.30;61.20
69677;DHT22;56914;51.058;9.326;2023-03-16T02:11:25;3.30;61.20
69677;DHT22;56914;51.058;9.326;2023-03-16T02:12:28;3.30;61.20
69677;DHT22;56914;51.058;9.326;2023-03-16T02:13:34;3.30;61.20
69677;DHT22;56914;51.058;9.326;2023-03-16T02:14:37;3.20;61.20
69677;DHT22;56914;51.058;9.326;2023-03-16T02:15:41;3.30;61.20
69677;DHT22;56914;51.058;9.326;2023-03-16T02:16:43;3.30;61.20
69677;DHT22;56914;51.058;9.326;2023-03-16T02:17:49;3.30;61.20
69677;DHT22;56914;51.058;9.326;2023-03-16T02:18:52;3.30;61.40
69677;DHT22;56914;51.058;9.326;2023-03-16T02:20:05;3.30;61.40
69677;DHT22;56914;51.058;9.326;2023-03-16T02:21:17;3.30;61.30
69677;DHT22;56914;51.058;9.326;2023-03-16T02:22:21;3.30;61.40
69677;DHT22;56914;51.058;9.326;2023-03-16T02:23:26;3.20;61.30
69677;DHT22;56914;51.058;9.326;2023-03-16T02:24:30;3.30;61.40
69677;DHT22;56914;51.058;9.326;2023-03-16T02:25:41;3.30;61.40
69677;DHT22;56914;51.058;9.326;2023-03-16T02:26:52;3.30;61.30
69677;DHT22;56914;51.058;9.326;2023-03-16T02:28:03;3.30;61.20
69677;DHT22;56914;51.058;9.326;2023-03-16T02:29:19;3.30;61.60
69677;DHT22;56914;51.058;9.326;2023-03-16T02:30:26;3.30;62.20
69677;DHT22;56914;51.058;9.326;2023-03-16T02:31:31;3.30;62.30
69677;DHT22;56914;51.058;9.326;2023-03-16T02:32:35;3.30;62.20
69677;DHT22;56914;51.058;9.326;2023-03-16T02:33:41;3.30;62.10
69677;DHT22;56914;51.058;9.326;2023-03-16T02:34:44;3.30;62.00
69677;DHT22;56914;51.058;9.326;2023-03-16T02:35:48;3.30;61.90
69677;DHT22;56914;51.058;9.326;2023-03-16T02:36:52;3.30;61.70
69677;DHT22;56914;51.058;9.326;2023-03-16T02:37:56;3.30;61.70
69677;DHT22;56914;51.058;9.326;2023-03-16T02:38:58;3.30;61.80
69677;DHT22;56914;51.058;9.326;2023-03-16T02:40:16;3.20;61.80
69677;DHT22;56914;51.058;9.326;2023-03-16T02:41:21;3.20;62.20
69677;DHT22;56914;51.058;9.326;2023-03-16T02:42:26;3.20;62.40
69677;DHT22;56914;51.058;9.326;2023-03-16T02:43:34;3.20;62.50
69677;DHT22;56914;51.058;9.326;2023-03-16T02:44:39;3.20;62.30
69677;DHT22;56914;51.058;9.326;2023-03-16T02:45:50;3.20;62.00
69677;DHT22;56914;51.058;9.326;2023-03-16T02:46:58;3.10;61.70
69677;DHT22;56914;51.058;9.326;2023-03-16T02:48:08;3.10;61.70
69677;DHT22;56914;51.058;9.326;2023-03-16T02:49:20;3.10;62.00
69677;DHT22;56914;51.058;9.326;2023-03-16T02:50:26;3.10;62.00
69677;DHT22;56914;51.058;9.326;2023-03-16T02:51:29;3.10;61.80
69677;DHT22;56914;51.058;9.326;2023-03-16T02:52:34;3.00;61.60
69677;DHT22;56914;51.058;9.326;2023-03-16T02:53:36;3.00;61.60
69677;DHT22;56914;51.058;9.326;2023-03-16T02:54:39;3.00;61.50
69677;DHT22;56914;51.058;9.326;2023-03-16T02:55:42;3.00;61.40
69677;DHT22;56914;51.058;9.326;2023-03-16T02:56:45;3.00;61.30
69677;DHT22;56914;51.058;9.326;2023-03-16T02:57:48;3.00;61.20
69677;DHT22;56914;51.058;9.326;2023-03-16T02:58:53;3.00;61.30
69677;DHT22;56914;51.058;9.326;2023-03-16T02:59:55;3.00;61.20
69677;DHT22;56914;51.058;9.326;2023-03-16T03:01:00;3.00;61.10
69677;DHT22;56914;51.058;9.326;2023-03-16T03:02:02;3.00;61.00
69677;DHT22;56914;51.058;9.326;2023-03-16T03:03:06;3.00;61.00
69677;DHT22;56914;51.058;9.326;2023-03-16T03:04:09;3.00;61.00
69677;DHT22;56914;51.058;9.326;2023-03-16T03:05:12;2.90;60.90
69677;DHT22;56914;51.058;9.326;2023-03-16T03:06:14;2.90;61.10
69677;DHT22;56914;51.058;9.326;2023-03-16T03:07:18;2.90;61.10
69677;DHT22;56914;51.058;9.326;2023-03-16T03:08:20;2.90;61.00
69677;DHT22;56914;51.058;9.326;2023-03-16T03:09:24;2.90;61.00
69677;DHT22;56914;51.058;9.326;2023-03-16T03:10:26;2.90;61.10
69677;DHT22;56914;51.058;9.326;2023-03-16T03:11:30;2.90;61.00
69677;DHT22;56914;51.058;9.326;2023-03-16T03:12:34;2.90;61.00
69677;DHT22;56914;51.058;9.326;2023-03-16T03:13:37;2.90;61.00
69677;DHT22;56914;51.058;9.326;2023-03-16T03:14:40;2.90;61.00
69677;DHT22;56914;51.058;9.326;2023-03-16T03:15:43;2.90;60.90
69677;DHT22;56914;51.058;9.326;2023-03-16T03:16:47;2.90;60.80
69677;DHT22;56914;51.058;9.326;2023-03-16T03:17:50;2.80;60.80
69677;DHT22;56914;51.058;9.326;2023-03-16T03:18:52;2.80;61.10
69677;DHT22;56914;51.058;9.326;2023-03-16T03:19:56;2.80;62.30
69677;DHT22;56914;51.058;9.326;2023-03-16T03:20:58;2.80;62.50
69677;DHT22;56914;51.058;9.326;2023-03-16T03:22:03;2.80;62.50
69677;DHT22;56914;51.058;9.326;2023-03-16T03:23:07;2.80;62.50
69677;DHT22;56914;51.058;9.326;2023-03-16T03:24:10;2.80;62.50
69677;DHT22;56914;51.058;9.326;2023-03-16T03:25:15;2.90;62.50
69677;DHT22;56914;51.058;9.326;2023-03-16T03:26:20;2.80;62.40
69677;DHT22;56914;51.058;9.326;2023-03-16T03:27:22;2.90;62.40
69677;DHT22;56914;51.058;9.326;2023-03-16T03:28:25;2.90;62.50
69677;DHT22;56914;51.058;9.326;2023-03-16T03:29:28;2.90;62.50
69677;DHT22;56914;51.058;9.326;2023-03-16T03:30:35;2.90;62.20
69677;DHT22;56914;51.058;9.326;2023-03-16T03:31:37;2.90;61.90
69677;DHT22;56914;51.058;9.326;2023-03-16T03:32:43;2.90;61.70
69677;DHT22;56914;51.058;9.326;2023-03-16T03:33:45;2.90;61.60
69677;DHT22;56914;51.058;9.326;2023-03-16T03:34:48;2.90;61.40
69677;DHT22;56914;51.058;9.326;2023-03-16T03:35:54;2.90;61.40
69677;DHT22;56914;51.058;9.326;2023-03-16T03:36:58;2.90;61.40
69677;DHT22;56914;51.058;9.326;2023-03-16T03:38:01;2.90;61.40
69677;DHT22;56914;51.058;9.326;2023-03-16T03:39:05;2.90;61.40
69677;DHT22;56914;51.058;9.326;2023-03-16T03:40:09;2.90;61.40
69677;DHT22;56914;51.058;9.326;2023-03-16T03:41:13;2.90;61.40
69677;DHT22;56914;51.058;9.326;2023-03-16T03:42:15;2.90;61.30
69677;DHT22;56914;51.058;9.326;2023-03-16T03:43:19;2.90;61.30
69677;DHT22;56914;51.058;9.326;2023-03-16T03:44:22;2.80;61.90
69677;DHT22;56914;51.058;9.326;2023-03-16T03:45:25;2.90;61.50
69677;DHT22;56914;51.058;9.326;2023-03-16T03:46:27;2.90;61.50
69677;DHT22;56914;51.058;9.326;2023-03-16T03:47:31;2.90;61.40
69677;DHT22;56914;51.058;9.326;2023-03-16T03:48:34;2.90;61.30
69677;DHT22;56914;51.058;9.326;2023-03-16T03:49:37;2.80;61.20
69677;DHT22;56914;51.058;9.326;2023-03-16T03:50:40;2.80;61.20
69677;DHT22;56914;51.058;9.326;2023-03-16T03:51:43;2.80;61.30
69677;DHT22;56914;51.058;9.326;2023-03-16T03:52:45;2.80;61.60
69677;DHT22;56914;51.058;9.326;2023-03-16T03:53:48;2.80;61.90
69677;DHT22;56914;51.058;9.326;2023-03-16T03:54:51;2.80;61.90
69677;DHT22;56914;51.058;9.326;2023-03-16T03:55:54;2.80;61.70
69677;DHT22;56914;51.058;9.326;2023-03-16T03:56:56;2.80;61.60
69677;DHT22;56914;51.058;9.326;2023-03-16T03:57:59;2.80;61.70
69677;DHT22;56914;51.058;9.326;2023-03-16T03:59:01;2.80;61.50
69677;DHT22;56914;51.058;9.326;2023-03-16T04:00:06;2.80;61.50
69677;DHT22;56914;51.058;9.326;2023-03-16T04:01:10;2.80;61.50
69677;DHT22;56914;51.058;9.326;2023-03-16T04:02:14;2.80;61.40
69677;DHT22;56914;51.058;9.326;2023-03-16T04:03:16;2.80;61.30
69677;DHT22;56914;51.058;9.326;2023-03-16T04:04:21;2.70;61.20
69677;DHT22;56914;51.058;9.326;2023-03-16T04:05:24;2.70;61.10
69677;DHT22;56914;51.058;9.326;2023-03-16T04:06:28;2.70;61.20
69677;DHT22;56914;51.058;9.326;2023-03-16T04:07:30;2.70;61.10
69677;DHT22;56914;51.058;9.326;2023-03-16T04:08:34;2.70;61.20
69677;DHT22;56914;51.058;9.326;2023-03-16T04:09:37;2.70;61.50
69677;DHT22;56914;51.058;9.326;2023-03-16T04:10:41;2.70;61.60
69677;DHT22;56914;51.058;9.326;2023-03-16T04:11:45;2.70;62.20
69677;DHT22;56914;51.058;9.326;2023-03-16T04:12:47;2.70;62.50
69677;DHT22;56914;51.058;9.326;2023-03-16T04:13:51;2.70;62.50
69677;DHT22;56914;51.058;9.326;2023-03-16T04:14:54;2.70;62.50
69677;DHT22;56914;51.058;9.326;2023-03-16T04:15:57;2.70;62.70
69677;DHT22;56914;51.058;9.326;2023-03-16T04:16:59;2.70;62.90
69677;DHT22;56914;51.058;9.326;2023-03-16T04:18:03;2.70;63.30
69677;DHT22;56914;51.058;9.326;2023-03-16T04:19:05;2.70;63.50
69677;DHT22;56914;51.058;9.326;2023-03-16T04:20:11;2.60;63.30
69677;DHT22;56914;51.058;9.326;2023-03-16T04:21:16;2.70;63.20
69677;DHT22;56914;51.058;9.326;2023-03-16T04:22:20;2.70;63.20
69677;DHT22;56914;51.058;9.326;2023-03-16T04:23:24;2.70;63.10
69677;DHT22;56914;51.058;9.326;2023-03-16T04:24:27;2.70;63.10
69677;DHT22;56914;51.058;9.326;2023-03-16T04:25:29;2.70;63.30
69677;DHT22;56914;51.058;9.326;2023-03-16T04:26:32;2.70;63.20
69677;DHT22;56914;51.058;9.326;2023-03-16T04:27:35;2.70;63.20
69677;DHT22;56914;51.058;9.326;2023-03-16T04:28:39;2.70;63.20
69677;DHT22;56914;51.058;9.326;2023-03-16T04:29:42;2.70;63.20
69677;DHT22;56914;51.058;9.326;2023-03-16T04:30:44;2.70;63.20
69677;DHT22;56914;51.058;9.326;2023-03-16T04:31:47;2.70;63.20
69677;DHT22;56914;51.058;9.326;2023-03-16T04:32:49;2.70;63.20
69677;DHT22;56914;51.058;9.326;2023-03-16T04:33:53;2.70;63.20
69677;DHT22;56914;51.058;9.326;2023-03-16T04:34:56;2.70;63.10
69677;DHT22;56914;51.058;9.326;2023-03-16T04:36:01;2.70;63.00
69677;DHT22;56914;51.058;9.326;2023-03-16T04:37:04;2.70;62.90
69677;DHT22;56914;51.058;9.326;2023-03-16T04:38:07;2.70;62.70
69677;DHT22;56914;51.058;9.326;2023-03-16T04:39:11;2.70;62.50
69677;DHT22;56914;51.058;9.326;2023-03-16T04:40:14;2.70;62.50
69677;DHT22;56914;51.058;9.326;2023-03-16T04:41:17;2.70;62.70
69677;DHT22;56914;51.058;9.326;2023-03-16T04:42:21;2.70;62.70
69677;DHT22;56914;51.058;9.326;2023-03-16T04:43:23;2.70;62.60
69677;DHT22;56914;51.058;9.326;2023-03-16T04:44:26;2.70;62.50
69677;DHT22;56914;51.058;9.326;2023-03-16T04:45:28;2.70;62.40
69677;DHT22;56914;51.058;9.326;2023-03-16T04:46:31;2.70;62.20
69677;DHT22;56914;51.058;9.326;2023-03-16T04:47:33;2.70;62.00
69677;DHT22;56914;51.058;9.326;2023-03-16T04:48:38;2.70;61.90
69677;DHT22;56914;51.058;9.326;2023-03-16T04:49:40;2.60;61.70
69677;DHT22;56914;51.058;9.326;2023-03-16T04:50:44;2.60;61.70
69677;DHT22;56914;51.058;9.326;2023-03-16T04:51:48;2.60;61.60
69677;DHT22;56914;51.058;9.326;2023-03-16T04:52:51;2.60;61.60
69677;DHT22;56914;51.058;9.326;2023-03-16T04:53:54;2.60;61.60
69677;DHT22;56914;51.058;9.326;2023-03-16T04:54:57;2.60;61.50
69677;DHT22;56914;51.058;9.326;2023-03-16T04:56:00;2.60;61.40
69677;DHT22;56914;51.058;9.326;2023-03-16T04:57:03;2.60;61.40
69677;DHT22;56914;51.058;9.326;2023-03-16T04:58:06;2.60;61.40
69677;DHT22;56914;51.058;9.326;2023-03-16T04:59:09;2.60;61.40
69677;DHT22;56914;51.058;9.326;2023-03-16T05:00:12;2.60;61.40
69677;DHT22;56914;51.058;9.326;2023-03-16T05:01:20;2.50;61.40
69677;DHT22;56914;51.058;9.326;2023-03-16T05:02:22;2.50;61.40
69677;DHT22;56914;51.058;9.326;2023-03-16T05:03:26;2.50;61.30
69677;DHT22;56914;51.058;9.326;2023-03-16T05:04:29;2.50;61.50
69677;DHT22;56914;51.058;9.326;2023-03-16T05:05:32;2.50;61.50
69677;DHT22;56914;51.058;9.326;2023-03-16T05:06:35;2.50;61.60
69677;DHT22;56914;51.058;9.326;2023-03-16T05:07:40;2.50;61.80
69677;DHT22;56914;51.058;9.326;2023-03-16T05:08:42;2.50;61.90
69677;DHT22;56914;51.058;9.326;2023-03-16T05:09:45;2.50;61.80
69677;DHT22;56914;51.058;9.326;2023-03-16T05:10:47;2.50;61.70
69677;DHT22;56914;51.058;9.326;2023-03-16T05:11:51;2.40;61.50
69677;DHT22;56914;51.058;9.326;2023-03-16T05:12:53;2.50;61.40
69677;DHT22;56914;51.058;9.326;2023-03-16T05:13:56;2.40;61.30
69677;DHT22;56914;51.058;9.326;2023-03-16T05:14:58;2.50;61.50
69677;DHT22;56914;51.058;9.326;2023-03-16T05:16:02;2.50;61.60
69677;DHT22;56914;51.058;9.326;2023-03-16T05:17:04;2.40;61.50
69677;DHT22;56914;51.058;9.326;2023-03-16T05:18:07;2.40;61.60
69677;DHT22;56914;51.058;9.326;2023-03-16T05:19:10;2.40;61.60
69677;DHT22;56914;51.058;9.326;2023-03-16T05:20:14;2.40;61.70
69677;DHT22;56914;51.058;9.326;2023-03-16T05:21:17;2.50;61.70
69677;DHT22;56914;51.058;9.326;2023-03-16T05:22:21;2.40;61.60
69677;DHT22;56914;51.058;9.326;2023-03-16T05:23:24;2.50;61.60
69677;DHT22;56914;51.058;9.326;2023-03-16T05:24:27;2.50;61.70
69677;DHT22;56914;51.058;9.326;2023-03-16T05:25:29;2.50;62.30
69677;DHT22;56914;51.058;9.326;2023-03-16T05:26:33;2.50;61.90
69677;DHT22;56914;51.058;9.326;2023-03-16T05:27:35;2.50;62.00
69677;DHT22;56914;51.058;9.326;2023-03-16T05:28:38;2.50;62.10
69677;DHT22;56914;51.058;9.326;2023-03-16T05:29:41;2.50;62.40
69677;DHT22;56914;51.058;9.326;2023-03-16T05:30:46;2.50;62.60
69677;DHT22;56914;51.058;9.326;2023-03-16T05:31:49;2.60;62.70
69677;DHT22;56914;51.058;9.326;2023-03-16T05:32:52;2.60;62.80
69677;DHT22;56914;51.058;9.326;2023-03-16T05:33:55;2.50;62.90
69677;DHT22;56914;51.058;9.326;2023-03-16T05:34:58;2.60;63.20
69677;DHT22;56914;51.058;9.326;2023-03-16T05:36:01;2.60;63.20
69677;DHT22;56914;51.058;9.326;2023-03-16T05:37:04;2.60;63.40
69677;DHT22;56914;51.058;9.326;2023-03-16T05:38:07;2.60;63.40
69677;DHT22;56914;51.058;9.326;2023-03-16T05:39:12;2.60;63.40
69677;DHT22;56914;51.058;9.326;2023-03-16T05:40:15;2.60;63.20
69677;DHT22;56914;51.058;9.326;2023-03-16T05:41:19;2.60;63.00
69677;DHT22;56914;51.058;9.326;2023-03-16T05:42:22;2.70;62.90
69677;DHT22;56914;51.058;9.326;2023-03-16T05:43:28;2.70;62.70
69677;DHT22;56914;51.058;9.326;2023-03-16T05:44:30;2.80;62.80
69677;DHT22;56914;51.058;9.326;2023-03-16T05:45:34;2.80;62.80
69677;DHT22;56914;51.058;9.326;2023-03-16T05:46:36;2.80;62.90
69677;DHT22;56914;51.058;9.326;2023-03-16T05:47:40;2.80;63.60
69677;DHT22;56914;51.058;9.326;2023-03-16T05:48:42;2.90;63.10
69677;DHT22;56914;51.058;9.326;2023-03-16T05:49:45;2.90;63.10
69677;DHT22;56914;51.058;9.326;2023-03-16T05:50:49;2.90;63.50
69677;DHT22;56914;51.058;9.326;2023-03-16T05:51:53;2.90;63.50
69677;DHT22;56914;51.058;9.326;2023-03-16T05:52:55;3.00;64.10
69677;DHT22;56914;51.058;9.326;2023-03-16T05:53:58;3.00;63.70
69677;DHT22;56914;51.058;9.326;2023-03-16T05:55:02;3.00;63.70
69677;DHT22;56914;51.058;9.326;2023-03-16T05:56:06;3.00;63.60
69677;DHT22;56914;51.058;9.326;2023-03-16T05:57:09;3.10;63.50
69677;DHT22;56914;51.058;9.326;2023-03-16T05:58:12;3.10;63.30
69677;DHT22;56914;51.058;9.326;2023-03-16T05:59:14;3.20;63.30
69677;DHT22;56914;51.058;9.326;2023-03-16T06:00:19;3.20;63.20
69677;DHT22;56914;51.058;9.326;2023-03-16T06:01:22;3.20;63.20
69677;DHT22;56914;51.058;9.326;2023-03-16T06:02:25;3.30;63.10
69677;DHT22;56914;51.058;9.326;2023-03-16T06:03:28;3.30;63.00
69677;DHT22;56914;51.058;9.326;2023-03-16T06:04:32;3.40;63.00
69677;DHT22;56914;51.058;9.326;2023-03-16T06:05:35;3.40;62.90
69677;DHT22;56914;51.058;9.326;2023-03-16T06:06:37;3.40;62.80
69677;DHT22;56914;51.058;9.326;2023-03-16T06:07:41;3.50;62.90
69677;DHT22;56914;51.058;9.326;2023-03-16T06:08:43;3.50;62.80
69677;DHT22;56914;51.058;9.326;2023-03-16T06:09:46;3.60;62.70
69677;DHT22;56914;51.058;9.326;2023-03-16T06:10:50;3.60;62.70
69677;DHT22;56914;51.058;9.326;2023-03-16T06:11:54;3.70;63.00
69677;DHT22;56914;51.058;9.326;2023-03-16T06:12:56;3.70;63.10
69677;DHT22;56914;51.058;9.326;2023-03-16T06:14:01;3.70;63.00
69677;DHT22;56914;51.058;9.326;2023-03-16T06:15:04;3.70;63.10
69677;DHT22;56914;51.058;9.326;2023-03-16T06:16:09;3.70;63.00
69677;DHT22;56914;51.058;9.326;2023-03-16T06:17:12;3.80;63.10
69677;DHT22;56914;51.058;9.326;2023-03-16T06:18:15;3.90;63.10
69677;DHT22;56914;51.058;9.326;2023-03-16T06:19:17;3.90;63.10
69677;DHT22;56914;51.058;9.326;2023-03-16T06:20:21;4.00;63.10
69677;DHT22;56914;51.058;9.326;2023-03-16T06:21:23;4.00;63.00
69677;DHT22;56914;51.058;9.326;2023-03-16T06:22:26;4.10;63.00
69677;DHT22;56914;51.058;9.326;2023-03-16T06:23:30;4.10;62.90
69677;DHT22;56914;51.058;9.326;2023-03-16T06:24:34;4.20;62.80
69677;DHT22;56914;51.058;9.326;2023-03-16T06:25:36;4.30;62.80
69677;DHT22;56914;51.058;9.326;2023-03-16T06:26:43;4.30;62.80
69677;DHT22;56914;51.058;9.326;2023-03-16T06:27:45;4.30;62.80
69677;DHT22;56914;51.058;9.326;2023-03-16T06:28:49;4.40;62.70
69677;DHT22;56914;51.058;9.326;2023-03-16T06:29:53;4.40;62.70
69677;DHT22;56914;51.058;9.326;2023-03-16T06:30:56;4.40;62.70
69677;DHT22;56914;51.058;9.326;2023-03-16T06:31:59;4.50;62.70
69677;DHT22;56914;51.058;9.326;2023-03-16T06:33:02;4.50;62.60
69677;DHT22;56914;51.058;9.326;2023-03-16T06:34:05;4.50;63.10
69677;DHT22;56914;51.058;9.326;2023-03-16T06:35:08;4.60;62.60
69677;DHT22;56914;51.058;9.326;2023-03-16T06:36:12;4.60;62.60
69677;DHT22;56914;51.058;9.326;2023-03-16T06:37:15;4.60;62.60
69677;DHT22;56914;51.058;9.326;2023-03-16T06:38:19;4.70;62.60
69677;DHT22;56914;51.058;9.326;2023-03-16T06:39:21;4.70;62.60
69677;DHT22;56914;51.058;9.326;2023-03-16T06:40:25;4.70;62.50
69677;DHT22;56914;51.058;9.326;2023-03-16T06:41:28;4.80;62.50
69677;DHT22;56914;51.058;9.326;2023-03-16T06:42:32;4.80;62.40
69677;DHT22;56914;51.058;9.326;2023-03-16T06:43:34;4.90;62.30
69677;DHT22;56914;51.058;9.326;2023-03-16T06:44:38;4.90;62.20
69677;DHT22;56914;51.058;9.326;2023-03-16T06:45:42;5.00;62.10
69677;DHT22;56914;51.058;9.326;2023-03-16T06:46:45;5.00;62.10
69677;DHT22;56914;51.058;9.326;2023-03-16T06:47:48;5.10;62.10
69677;DHT22;56914;51.058;9.326;2023-03-16T06:48:50;5.10;62.00
69677;DHT22;56914;51.058;9.326;2023-03-16T06:49:54;5.10;61.80